Time;durP1;ratioP1;P1;durP2;ratioP2;P2;SDS_P1;SDS_P2;PMS_P1;PMS_P2;Temp;Humidity;BMP_temperature;BMP_pressure;BME280_temperature;BME280_humidity;BME280_pressure;Samples;Min_cycle;Max_cycle;Signal;HPM_P1;HPM_P2
2023/10/15 00:00:13;;;;;;;10.02;1.58;;;;;;;-146.27;72.61;83143.59;5026136;28;20029;-67
2023/10/15 00:02:43;;;;;;;11.15;0.95;;;;;;;-146.27;72.93;83177.75;5026479;28;20178;-66
2023/10/15 00:05:15;;;;;;;9.40;1.42;;;;;;;-146.27;73.50;83167.69;5012651;28;20108;-67
2023/10/15 00:07:42;;;;;;;7.53;0.88;;;;;;;-146.27;72.80;83141.56;5012048;28;20032;-67
2023/10/15 00:10:12;;;;;;;12.70;1.35;;;;;;;-146.27;72.09;83173.72;5023747;28;20127;-67
2023/10/15 00:12:39;;;;;;;4.63;0.60;;;;;;;-146.27;72.26;83145.59;5027730;28;20248;-68
2023/10/15 00:18:06;;;;;;;13.52;1.27;;;;;;;-146.27;72.84;83179.75;5015337;28;20046;-68
2023/10/15 00:20:34;;;;;;;10.70;0.95;;;;;;;-146.27;72.80;83143.59;5018018;28;20059;-67
2023/10/15 00:23:04;;;;;;;6.53;0.98;;;;;;;-146.27;71.88;83193.81;5014058;28;20142;-68
2023/10/15 00:25:37;;;;;;;5.65;0.77;;;;;;;-146.27;71.85;83175.72;5030232;28;20062;-68
2023/10/15 00:28:05;;;;;;;4.18;0.55;;;;;;;-146.27;71.79;83175.72;5023277;28;20044;-68
2023/10/15 00:30:32;;;;;;;14.65;1.17;;;;;;;-146.27;71.72;83165.69;5024572;28;20366;-67
2023/10/15 00:33:02;;;;;;;4.88;0.85;;;;;;;-146.27;72.12;83211.91;5025214;28;20021;-67
2023/10/15 00:35:28;;;;;;;10.50;0.80;;;;;;;-146.27;73.88;83179.75;5024653;28;20048;-68
2023/10/15 00:37:56;;;;;;;19.40;2.78;;;;;;;-146.27;74.72;83187.78;5029967;28;20092;-67
2023/10/15 00:40:26;;;;;;;9.10;1.65;;;;;;;-146.27;76.38;83248.06;5027547;28;20033;-67
2023/10/15 00:42:52;;;;;;;10.52;1.83;;;;;;;-146.27;76.60;83284.22;5024095;28;20037;-67
2023/10/15 00:45:19;;;;;;;14.73;1.85;;;;;;;-146.27;77.48;83336.47;5022281;28;20029;-67
2023/10/15 00:48:02;;;;;;;16.92;2.30;;;;;;;-146.27;78.12;83324.41;5019879;28;20037;-67
2023/10/15 00:50:42;;;;;;;13.93;1.65;;;;;;;-146.27;80.49;83420.88;5021672;28;20029;-66
2023/10/15 00:53:23;;;;;;;25.92;2.75;;;;;;;-146.27;80.60;83473.09;5016619;28;20036;-67
2023/10/15 00:55:49;;;;;;;14.70;1.42;;;;;;;-146.27;82.79;83503.25;5019788;28;20429;-66
2023/10/15 00:58:21;;;;;;;9.80;1.48;;;;;;;-146.27;84.25;83519.31;5020536;28;20026;-66
2023/10/15 01:01:00;;;;;;;10.15;1.40;;;;;;;-146.27;84.69;83521.34;5026598;28;20036;-66
2023/10/15 01:03:30;;;;;;;18.17;1.42;;;;;;;-146.27;86.82;83537.41;5028624;28;20373;-68
2023/10/15 01:05:59;;;;;;;5.32;1.15;;;;;;;-146.27;87.38;83521.34;5015907;28;20045;-68
2023/10/15 01:08:38;;;;;;;6.85;1.10;;;;;;;-146.27;87.80;83511.28;5014572;28;20067;-68
2023/10/15 01:11:11;;;;;;;13.13;1.92;;;;;;;-146.27;87.64;83503.25;5022954;28;20497;-68
2023/10/15 01:13:38;;;;;;;12.93;1.48;;;;;;;-146.27;87.13;83513.28;5023708;28;20057;-68
2023/10/15 01:16:08;;;;;;;8.07;1.15;;;;;;;-146.27;86.39;83513.28;5021548;28;20443;-68
2023/10/15 01:18:33;;;;;;;12.13;1.80;;;;;;;-146.27;85.65;83547.44;5028060;28;20038;-68
2023/10/15 01:21:01;;;;;;;5.75;1.20;;;;;;;-146.27;86.17;83573.56;5010292;28;20030;-68
2023/10/15 01:23:44;;;;;;;4.07;1.63;;;;;;;-146.27;85.18;83571.56;5015096;28;20030;-68
2023/10/15 01:26:16;;;;;;;4.07;1.30;;;;;;;-146.27;85.59;83585.63;5029789;28;20030;-68
2023/10/15 01:28:44;;;;;;;7.53;1.65;;;;;;;-146.27;85.44;83519.31;5018628;28;20064;-69
2023/10/15 01:31:14;;;;;;;11.20;1.38;;;;;;;-146.27;85.00;83569.56;5045801;28;20035;-67
2023/10/15 01:33:46;;;;;;;6.40;0.80;;;;;;;-146.27;85.20;83597.69;5026546;28;20080;-67
2023/10/15 01:36:19;;;;;;;10.65;1.65;;;;;;;-146.27;86.86;83601.72;5013562;28;20022;-67
2023/10/15 01:38:45;;;;;;;4.65;1.73;;;;;;;-146.27;89.29;83583.63;5017618;28;20026;-67
2023/10/15 01:41:14;;;;;;;3.25;0.82;;;;;;;-146.27;88.12;83597.69;5028398;28;20133;-67
2023/10/15 01:43:40;;;;;;;3.40;1.17;;;;;;;-146.27;88.02;83569.56;5025985;28;20034;-67
2023/10/15 01:46:12;;;;;;;13.88;1.30;;;;;;;-146.27;89.16;83573.56;5025407;28;20149;-67
2023/10/15 01:48:41;;;;;;;3.97;1.00;;;;;;;-146.27;88.87;83579.59;5026602;28;20037;-67
2023/10/15 01:51:07;;;;;;;11.98;1.33;;;;;;;-146.27;87.97;83623.81;5022739;28;20033;-66
2023/10/15 01:53:37;;;;;;;7.05;1.35;;;;;;;-146.27;87.72;83591.66;5036216;28;20101;-67
2023/10/15 01:56:04;;;;;;;6.40;1.27;;;;;;;-146.27;88.11;83555.50;5013998;28;20394;-67
2023/10/15 01:58:32;;;;;;;8.20;1.30;;;;;;;-146.27;88.17;83549.47;5019341;28;20086;-67
2023/10/15 02:01:09;;;;;;;7.10;1.25;;;;;;;-146.27;87.62;83533.38;5031809;28;20025;-67
2023/10/15 02:03:34;;;;;;;7.47;1.02;;;;;;;-146.27;88.76;83555.50;5015069;28;20053;-67
2023/10/15 02:06:05;;;;;;;4.28;1.20;;;;;;;-146.27;88.83;83593.66;5026797;28;20049;-67
2023/10/15 02:08:31;;;;;;;9.23;1.98;;;;;;;-146.27;88.95;83555.50;5030259;28;20029;-65
2023/10/15 02:10:56;;;;;;;9.65;1.30;;;;;;;-146.27;89.72;83585.63;5020896;28;20041;-66
2023/10/15 02:13:22;;;;;;;9.93;1.27;;;;;;;-146.27;88.75;83601.72;5025742;28;20061;-66
2023/10/15 02:15:58;;;;;;;4.28;1.13;;;;;;;-146.27;88.39;83541.41;5023516;28;20069;-66
2023/10/15 02:18:23;;;;;;;7.65;1.08;;;;;;;-146.27;87.10;83563.53;5024231;28;20473;-68
2023/10/15 02:23:20;;;;;;;6.55;1.15;;;;;;;-146.27;87.19;83605.72;5021091;28;20397;-66
2023/10/15 02:25:47;;;;;;;2.65;1.13;;;;;;;-146.27;87.12;83585.63;5025559;28;20030;-67
2023/10/15 02:28:32;;;;;;;1.55;0.70;;;;;;;-146.27;86.80;83597.69;5025060;28;20473;-66
2023/10/15 02:31:05;;;;;;;4.93;1.10;;;;;;;-146.27;86.84;83607.72;5024933;28;20041;-66
2023/10/15 02:33:32;;;;;;;3.58;0.82;;;;;;;-146.27;86.24;83615.78;5032108;28;20095;-66
2023/10/15 02:35:59;;;;;;;2.55;0.93;;;;;;;-146.27;86.79;83621.81;5025335;28;20481;-66
2023/10/15 02:38:36;;;;;;;3.15;0.80;;;;;;;-146.27;86.83;83597.69;5018458;28;20030;-67
2023/10/15 02:43:28;;;;;;;2.80;0.80;;;;;;;-146.27;84.55;83615.78;5026098;28;20036;-67
2023/10/15 02:45:54;;;;;;;3.33;0.60;;;;;;;-146.27;82.68;83684.09;5025271;28;20021;-67
2023/10/15 02:48:20;;;;;;;3.13;0.50;;;;;;;-146.27;80.60;83690.13;5021022;28;20033;-66
2023/10/15 02:50:59;;;;;;;3.15;0.50;;;;;;;-146.27;80.91;83688.09;5025647;28;20021;-66
2023/10/15 02:53:26;;;;;;;0.95;0.47;;;;;;;-146.27;79.28;83724.28;5025669;28;20025;-66
2023/10/15 02:55:52;;;;;;;1.95;0.73;;;;;;;-146.27;79.25;83686.09;5017114;28;20033;-66
2023/10/15 02:58:17;;;;;;;1.25;0.52;;;;;;;-146.27;75.47;83700.16;5017681;28;20026;-66
2023/10/15 03:00:43;;;;;;;4.95;0.85;;;;;;;-146.27;75.67;83684.09;5027793;28;20039;-67
2023/10/15 03:03:15;;;;;;;3.63;0.47;;;;;;;-146.27;76.73;83629.84;5027324;28;20022;-66
2023/10/15 03:05:42;;;;;;;2.15;0.43;;;;;;;-146.27;77.55;83674.03;5014035;28;20038;-66
2023/10/15 03:08:07;;;;;;;1.90;0.40;;;;;;;-146.27;78.68;83629.84;5023208;28;20025;-66
2023/10/15 03:10:56;;;;;;;3.70;0.73;;;;;;;-146.27;82.24;83621.81;5029513;28;20029;-67
2023/10/15 03:13:21;;;;;;;3.17;0.52;;;;;;;-146.27;83.47;83629.84;5014903;28;20033;-66
2023/10/15 03:15:50;;;;;;;1.85;0.55;;;;;;;-146.27;84.64;83591.66;5022305;28;20104;-66
2023/10/15 03:18:22;;;;;;;2.80;0.70;;;;;;;-146.27;85.02;83603.72;5021846;28;20482;-68
2023/10/15 03:20:49;;;;;;;2.60;0.70;;;;;;;-146.27;85.57;83629.84;5028219;28;20021;-67
2023/10/15 03:23:17;;;;;;;2.20;0.65;;;;;;;-146.27;86.32;83623.81;5026801;28;20503;-68
2023/10/15 03:25:43;;;;;;;2.20;0.60;;;;;;;-146.27;85.80;83613.75;5027868;28;20029;-67
2023/10/15 03:28:11;;;;;;;2.10;0.60;;;;;;;-146.27;85.25;83567.53;5022182;28;20030;-68
2023/10/15 03:30:44;;;;;;;3.17;0.90;;;;;;;-146.27;84.32;83613.75;5028941;28;20168;-67
2023/10/15 03:33:11;;;;;;;5.53;1.17;;;;;;;-146.27;84.86;83609.75;5019741;28;20285;-67
2023/10/15 03:35:45;;;;;;;4.13;0.68;;;;;;;-146.27;84.94;83573.56;5020954;28;20040;-69
2023/10/15 03:38:14;;;;;;;7.82;0.95;;;;;;;-146.27;85.42;83589.66;5020739;28;20040;-67
2023/10/15 03:40:50;;;;;;;2.55;0.70;;;;;;;-146.27;84.77;83573.56;5018674;28;20421;-68
2023/10/15 03:43:16;;;;;;;5.25;0.98;;;;;;;-146.27;84.12;83597.69;5010482;28;20437;-68
2023/10/15 03:45:50;;;;;;;1.85;0.60;;;;;;;-146.27;84.35;83609.75;5019343;28;20017;-67
2023/10/15 03:48:36;;;;;;;1.33;0.82;;;;;;;-146.27;84.37;83579.59;5018973;28;20036;-68
2023/10/15 03:51:05;;;;;;;8.88;1.52;;;;;;;-146.27;84.76;83589.66;5021734;28;20029;-67
2023/10/15 03:53:34;;;;;;;5.63;0.60;;;;;;;-146.27;84.52;83613.75;5031294;28;20037;-67
2023/10/15 03:56:01;;;;;;;6.20;0.90;;;;;;;-146.27;84.19;83611.75;5019118;28;20045;-68
2023/10/15 03:58:33;;;;;;;3.42;0.50;;;;;;;-146.27;84.50;83627.81;5018229;28;20030;-68
2023/10/15 04:01:16;;;;;;;2.95;0.73;;;;;;;-146.27;84.48;83631.84;5022275;28;20029;-67
2023/10/15 04:03:43;;;;;;;6.18;0.70;;;;;;;-146.27;84.55;83657.97;5022552;28;20068;-67
2023/10/15 04:06:13;;;;;;;3.75;1.23;;;;;;;-146.27;84.25;83643.91;5021529;28;20056;-68
2023/10/15 04:08:38;;;;;;;6.15;0.68;;;;;;;-146.27;84.36;83668.00;5025727;28;20156;-67
2023/10/15 04:11:04;;;;;;;2.95;0.90;;;;;;;-146.27;85.22;83694.13;5020055;28;20033;-68
2023/10/15 04:13:29;;;;;;;2.83;0.60;;;;;;;-146.27;85.29;83674.03;5026439;28;20052;-68
2023/10/15 04:15:56;;;;;;;9.27;0.60;;;;;;;-146.27;85.98;83698.16;5031884;28;20037;-68
2023/10/15 04:18:25;;;;;;;3.70;0.73;;;;;;;-146.27;86.45;83686.09;5029565;28;20033;-67
2023/10/15 04:20:52;;;;;;;2.47;0.80;;;;;;;-146.27;86.50;83631.84;5026311;28;20026;-67
2023/10/15 04:23:30;;;;;;;2.63;1.08;;;;;;;-146.27;86.16;83682.09;5018027;28;20029;-67
2023/10/15 04:26:01;;;;;;;3.90;1.02;;;;;;;-146.27;87.26;83668.00;5029842;28;20152;-67
2023/10/15 04:28:28;;;;;;;5.57;0.63;;;;;;;-146.27;86.73;83657.97;5028105;28;20032;-68
2023/10/15 04:30:53;;;;;;;8.00;1.00;;;;;;;-146.27;85.99;83657.97;5022497;28;20022;-68
2023/10/15 04:33:20;;;;;;;2.40;0.60;;;;;;;-146.27;86.40;83668.00;5018920;28;20025;-67
2023/10/15 04:35:48;;;;;;;5.72;0.82;;;;;;;-146.27;86.88;83625.81;5023920;28;20561;-67
2023/10/15 04:38:21;;;;;;;8.52;0.95;;;;;;;-146.27;87.17;83637.88;5030076;28;20492;-67
2023/10/15 04:43:25;;;;;;;13.32;1.10;;;;;;;-146.27;84.72;83607.72;5019971;28;20109;-67
2023/10/15 04:45:54;;;;;;;6.75;1.02;;;;;;;-146.27;84.40;83625.81;5026608;28;20025;-67
2023/10/15 04:48:26;;;;;;;12.30;1.10;;;;;;;-146.27;84.34;83611.75;5029890;28;20090;-68
2023/10/15 04:50:53;;;;;;;7.15;1.48;;;;;;;-146.27;83.79;83601.72;5011204;28;20110;-68
2023/10/15 04:55:52;;;;;;;9.05;1.52;;;;;;;-146.27;82.28;83595.69;5029569;28;20034;-68
2023/10/15 04:58:17;;;;;;;4.15;0.70;;;;;;;-146.27;81.84;83599.69;5023079;28;20069;-68
2023/10/15 05:00:44;;;;;;;7.50;1.05;;;;;;;-146.27;82.23;83625.81;5011703;28;20049;-68
2023/10/15 05:03:10;;;;;;;11.77;1.10;;;;;;;-146.27;82.22;83585.63;5015199;28;20033;-68
2023/10/15 05:05:36;;;;;;;9.50;0.85;;;;;;;-146.27;81.41;83631.84;5021029;28;20026;-68
2023/10/15 05:08:02;;;;;;;8.85;0.90;;;;;;;-146.27;80.94;83613.75;5020535;28;20034;-68
2023/10/15 05:10:29;;;;;;;6.60;0.98;;;;;;;-146.27;79.60;83649.94;5020839;28;20028;-68
2023/10/15 05:12:55;;;;;;;3.30;0.70;;;;;;;-146.27;80.18;83631.84;5018108;28;20030;-68
2023/10/15 05:15:20;;;;;;;4.63;0.65;;;;;;;-146.27;80.02;83617.78;5017649;28;20042;-68
2023/10/15 05:17:47;;;;;;;1.45;0.75;;;;;;;-146.27;79.17;83617.78;5015274;28;20034;-68
2023/10/15 05:20:13;;;;;;;3.00;0.68;;;;;;;-146.27;79.01;83623.81;5023337;28;20111;-68
2023/10/15 05:22:40;;;;;;;1.27;0.35;;;;;;;-146.27;78.48;83657.97;5017837;28;20052;-68
2023/10/15 05:25:09;;;;;;;3.95;0.68;;;;;;;-146.27;79.59;83613.75;5019618;28;20104;-68
2023/10/15 05:27:37;;;;;;;6.47;0.85;;;;;;;-146.27;79.82;83641.91;5019489;28;20028;-69
2023/10/15 05:30:02;;;;;;;4.55;0.90;;;;;;;-146.27;79.80;83601.72;5021273;28;20484;-68
2023/10/15 05:32:28;;;;;;;3.65;0.43;;;;;;;-146.27;79.81;83629.84;5025877;28;20854;-68
2023/10/15 05:34:53;;;;;;;1.98;0.45;;;;;;;-146.27;81.30;83639.88;5020513;28;20037;-68
2023/10/15 05:37:21;;;;;;;6.05;0.70;;;;;;;-146.27;81.22;83619.78;5019142;28;20021;-67
2023/10/15 05:39:46;;;;;;;6.65;1.02;;;;;;;-146.27;81.72;83573.56;5019544;28;20180;-66
2023/10/15 05:42:12;;;;;;;1.45;0.60;;;;;;;-146.27;82.00;83649.94;5020303;28;20545;-65
2023/10/15 05:44:37;;;;;;;5.68;0.55;;;;;;;-146.27;81.53;83595.69;5023600;28;20184;-67
2023/10/15 05:47:02;;;;;;;8.18;1.10;;;;;;;-146.27;81.89;83597.69;5014879;28;20385;-67
2023/10/15 05:49:28;;;;;;;3.53;0.60;;;;;;;-146.27;82.21;83601.72;5012308;28;20477;-66
2023/10/15 05:51:53;;;;;;;9.63;1.20;;;;;;;-146.27;81.81;83611.75;5022331;28;20017;-67
2023/10/15 05:54:19;;;;;;;3.88;0.95;;;;;;;-146.27;81.79;83613.75;5023892;28;20124;-67
2023/10/15 05:56:45;;;;;;;5.43;0.65;;;;;;;-146.27;81.51;83609.75;5023106;28;20496;-66
2023/10/15 05:59:11;;;;;;;10.82;1.63;;;;;;;-146.27;81.18;83613.75;5013841;28;20060;-66
2023/10/15 06:01:36;;;;;;;7.00;0.73;;;;;;;-146.27;81.02;83611.75;5022748;28;20029;-67
2023/10/15 06:04:02;;;;;;;12.15;0.88;;;;;;;-146.27;80.41;83607.72;5016668;28;20045;-67
2023/10/15 06:06:28;;;;;;;4.38;0.65;;;;;;;-146.27;80.59;83579.59;5013085;28;20022;-67
2023/10/15 06:08:56;;;;;;;2.58;0.30;;;;;;;-146.27;79.60;83569.56;5021020;28;20030;-67
2023/10/15 06:11:21;;;;;;;5.38;0.80;;;;;;;-146.27;79.95;83571.56;5017635;28;20037;-66
2023/10/15 06:13:47;;;;;;;7.43;0.63;;;;;;;-146.27;80.26;83607.72;5023716;28;20040;-66
2023/10/15 06:16:14;;;;;;;4.70;0.80;;;;;;;-146.27;80.51;83609.75;5030298;28;20432;-66
2023/10/15 06:18:39;;;;;;;4.95;0.60;;;;;;;-146.27;80.70;83593.66;5026166;28;20034;-66
2023/10/15 06:21:05;;;;;;;4.72;0.65;;;;;;;-146.27;81.68;83605.72;5022885;28;20033;-67
2023/10/15 06:23:30;;;;;;;4.38;0.55;;;;;;;-146.27;82.38;83589.66;5030324;28;20033;-68
2023/10/15 06:25:56;;;;;;;2.75;0.60;;;;;;;-146.27;82.86;83609.75;5025499;28;20013;-69
2023/10/15 06:28:22;;;;;;;5.05;0.88;;;;;;;-146.27;82.22;83581.59;5022537;28;20477;-67
2023/10/15 06:30:47;;;;;;;5.03;0.93;;;;;;;-146.27;82.25;83577.59;5020393;28;20037;-67
2023/10/15 06:33:13;;;;;;;3.88;0.90;;;;;;;-146.27;82.71;83587.63;5015401;28;20116;-67
2023/10/15 06:35:43;;;;;;;6.80;1.00;;;;;;;-146.27;82.90;83597.69;5020088;28;20128;-69
2023/10/15 06:38:08;;;;;;;6.68;0.90;;;;;;;-146.27;82.06;83613.75;5020919;28;20120;-68
2023/10/15 06:40:37;;;;;;;6.03;0.70;;;;;;;-146.27;82.81;83637.88;5020897;28;20159;-68
2023/10/15 06:43:03;;;;;;;10.55;0.60;;;;;;;-146.27;82.98;83615.78;5033077;28;20532;-67
2023/10/15 06:45:30;;;;;;;6.35;0.98;;;;;;;-146.27;82.77;83605.72;5039722;28;20022;-68
2023/10/15 06:47:55;;;;;;;12.05;1.25;;;;;;;-146.27;82.53;83623.81;5029494;28;20025;-69
2023/10/15 06:50:22;;;;;;;5.45;1.00;;;;;;;-146.27;83.23;83571.56;5040606;28;20027;-69
2023/10/15 06:52:47;;;;;;;7.13;1.00;;;;;;;-146.27;83.05;83583.63;5050017;28;20033;-69
2023/10/15 06:55:13;;;;;;;7.18;1.08;;;;;;;-146.27;82.29;83549.47;5048207;28;20037;-69
2023/10/15 06:57:40;;;;;;;6.03;1.05;;;;;;;-146.27;82.22;83505.25;5028270;28;20033;-69
2023/10/15 07:00:09;;;;;;;6.35;0.77;;;;;;;-146.27;80.26;83521.34;5027088;28;20115;-70
2023/10/15 07:02:35;;;;;;;13.40;1.52;;;;;;;-146.27;79.74;83541.41;5032103;28;20044;-69
2023/10/15 07:05:02;;;;;;;10.05;1.65;;;;;;;-146.27;80.76;83511.28;5028428;28;20026;-69
2023/10/15 07:07:30;;;;;;;14.10;2.13;;;;;;;-146.27;81.73;83601.72;5031430;28;20028;-68
2023/10/15 07:09:56;;;;;;;6.90;0.95;;;;;;;-146.27;81.64;83555.50;5041375;28;20024;-69
2023/10/15 07:12:22;;;;;;;18.40;1.23;;;;;;;-146.27;81.46;83533.38;5032515;28;20026;-69
2023/10/15 07:14:48;;;;;;;11.00;1.73;;;;;;;-146.27;81.30;83585.63;5035115;28;20049;-69
2023/10/15 07:17:14;;;;;;;8.10;1.80;;;;;;;-146.27;81.16;83573.56;5042782;28;20021;-69
2023/10/15 07:19:39;;;;;;;8.73;1.52;;;;;;;-146.27;80.56;83597.69;5044446;28;20370;-70
2023/10/15 07:22:05;;;;;;;9.70;1.40;;;;;;;-146.27;80.56;83561.53;5034777;28;20017;-69
2023/10/15 07:24:31;;;;;;;8.38;1.17;;;;;;;-146.27;80.34;83617.78;5040326;28;20050;-69
2023/10/15 07:26:57;;;;;;;11.05;1.00;;;;;;;-146.27;80.82;83595.69;5018130;28;20021;-69
2023/10/15 07:29:24;;;;;;;4.35;1.15;;;;;;;-146.27;80.62;83547.44;5029018;28;20060;-67
2023/10/15 07:31:50;;;;;;;5.75;0.90;;;;;;;-146.27;80.30;83541.41;5024943;28;20017;-68
2023/10/15 07:34:17;;;;;;;6.20;0.95;;;;;;;-146.27;78.95;83525.34;5020089;28;20034;-68
2023/10/15 07:36:43;;;;;;;5.03;0.77;;;;;;;-146.27;79.14;83521.34;5016534;28;20030;-68
2023/10/15 07:39:09;;;;;;;4.00;0.70;;;;;;;-146.27;78.53;83545.44;5019709;28;20140;-68
2023/10/15 07:41:34;;;;;;;4.35;0.60;;;;;;;-146.27;78.42;83493.19;5021834;28;20037;-68
2023/10/15 07:44:01;;;;;;;4.90;0.43;;;;;;;-146.27;77.14;83579.59;5039175;28;20032;-69
2023/10/15 07:46:28;;;;;;;4.53;0.70;;;;;;;-146.27;76.95;83571.56;5013409;28;20028;-69
2023/10/15 07:48:54;;;;;;;7.57;1.05;;;;;;;-146.27;77.41;83541.41;5019751;28;20026;-68
2023/10/15 07:51:20;;;;;;;3.15;0.60;;;;;;;-146.27;77.53;83551.47;5024921;28;20040;-70
2023/10/15 07:53:45;;;;;;;6.55;0.88;;;;;;;-146.27;78.29;83513.28;5027461;28;20038;-68
2023/10/15 07:56:14;;;;;;;6.53;1.38;;;;;;;-146.27;79.11;83477.13;5017207;28;20041;-69
2023/10/15 07:58:40;;;;;;;6.28;1.42;;;;;;;-146.27;79.88;83561.53;5036984;28;20365;-68
2023/10/15 08:01:05;;;;;;;11.52;1.10;;;;;;;-146.27;79.91;83465.06;5023657;28;20113;-69
2023/10/15 08:03:32;;;;;;;3.95;0.63;;;;;;;-146.27;80.07;83565.53;5018429;28;20026;-69
2023/10/15 08:06:01;;;;;;;4.95;0.77;;;;;;;-146.27;80.02;83517.31;5028027;28;20017;-68
2023/10/15 08:08:29;;;;;;;4.93;0.98;;;;;;;-146.27;80.49;83483.16;5024916;28;20041;-69
2023/10/15 08:10:58;;;;;;;9.98;1.83;;;;;;;-146.27;80.76;83493.19;5031523;28;20056;-70
2023/10/15 08:13:24;;;;;;;7.70;0.90;;;;;;;-146.27;80.67;83485.16;5037973;28;20025;-71
2023/10/15 08:15:50;;;;;;;6.57;0.82;;;;;;;-146.27;80.73;83471.09;5027473;28;20041;-69
2023/10/15 08:18:15;;;;;;;11.35;1.00;;;;;;;-146.27;80.98;83428.91;5024653;28;20056;-69
2023/10/15 08:20:40;;;;;;;6.43;1.42;;;;;;;-146.27;80.85;83453.00;5018049;28;20022;-70
2023/10/15 08:23:05;;;;;;;8.25;0.98;;;;;;;-146.27;80.62;83471.09;5029259;28;20029;-70
2023/10/15 08:25:31;;;;;;;3.95;0.98;;;;;;;-146.27;81.06;83475.13;5025589;28;20029;-69
2023/10/15 08:27:57;;;;;;;6.47;0.98;;;;;;;-146.27;81.37;83404.78;5030000;28;20025;-70
2023/10/15 08:30:22;;;;;;;2.55;0.68;;;;;;;-146.27;82.31;83493.19;5025250;28;20040;-70
2023/10/15 08:32:48;;;;;;;6.57;1.17;;;;;;;-146.27;81.91;83507.25;5013487;28;20033;-71
2023/10/15 08:35:15;;;;;;;10.25;0.93;;;;;;;-146.27;81.46;83475.13;5030577;28;20053;-71
2023/10/15 08:37:41;;;;;;;6.10;0.65;;;;;;;-146.27;81.94;83449.00;5026734;28;20029;-67
2023/10/15 08:40:07;;;;;;;5.03;1.35;;;;;;;-146.27;82.83;83495.22;5031884;28;20490;-69
2023/10/15 08:42:38;;;;;;;5.03;1.02;;;;;;;-146.27;82.85;83493.19;5025246;28;20108;-70
2023/10/15 08:45:05;;;;;;;3.00;0.50;;;;;;;-146.27;83.61;83459.03;5020971;28;20449;-68
2023/10/15 08:47:33;;;;;;;8.88;0.70;;;;;;;-146.27;83.97;83388.72;5018328;28;20112;-69
2023/10/15 08:49:59;;;;;;;8.45;1.45;;;;;;;-146.27;83.05;83400.78;5019316;28;20033;-68
2023/10/15 08:52:31;;;;;;;4.93;0.80;;;;;;;-146.27;83.04;83404.78;5032733;28;20435;-69
2023/10/15 08:54:59;;;;;;;6.80;0.60;;;;;;;-146.27;82.79;83380.69;5029703;28;20025;-69
2023/10/15 08:57:25;;;;;;;8.30;0.75;;;;;;;-146.27;82.47;83392.72;5030218;28;20025;-70
2023/10/15 08:59:51;;;;;;;9.07;1.33;;;;;;;-146.27;82.35;83428.91;5035488;28;20036;-69
2023/10/15 09:02:18;;;;;;;1.80;0.70;;;;;;;-146.27;81.78;83368.63;5016250;28;20068;-69
2023/10/15 09:04:45;;;;;;;5.80;1.30;;;;;;;-146.27;80.70;83400.78;5032327;28;20067;-68
2023/10/15 09:07:14;;;;;;;3.15;0.82;;;;;;;-146.27;80.21;83398.75;5034533;28;20042;-68
2023/10/15 09:09:40;;;;;;;10.68;1.20;;;;;;;-146.27;80.83;83374.66;5033725;28;20072;-70
2023/10/15 09:12:06;;;;;;;12.80;1.15;;;;;;;-146.27;81.38;83436.94;5043128;28;20492;-72
2023/10/15 09:14:48;;;;;;;13.90;1.30;;;;;;;-146.27;82.00;83412.81;5025353;28;20029;-71
2023/10/15 09:17:18;;;;;;;5.57;0.93;;;;;;;-146.27;83.15;83455.03;5023236;28;20041;-70
2023/10/15 09:19:48;;;;;;;7.63;1.05;;;;;;;-146.27;83.08;83440.94;5031356;28;20108;-72
2023/10/15 09:22:16;;;;;;;7.30;0.98;;;;;;;-146.27;83.77;83442.97;5036049;28;20025;-70
2023/10/15 09:24:45;;;;;;;5.82;0.90;;;;;;;-146.27;84.94;83493.19;5028505;28;20029;-70
2023/10/15 09:27:13;;;;;;;8.90;1.58;;;;;;;-146.27;84.51;83471.09;5021716;28;20065;-71
2023/10/15 09:29:38;;;;;;;2.78;0.68;;;;;;;-146.27;84.38;83420.88;5029053;28;20049;-71
2023/10/15 09:32:05;;;;;;;6.90;0.80;;;;;;;-146.27;85.02;83481.16;5029601;28;20472;-71
2023/10/15 09:34:37;;;;;;;9.43;1.23;;;;;;;-146.27;84.76;83477.13;5022268;28;20040;-71
2023/10/15 09:37:06;;;;;;;4.67;1.07;;;;;;;-146.27;84.54;83471.09;5020212;28;20113;-73
2023/10/15 09:39:34;;;;;;;5.75;1.05;;;;;;;-146.27;84.85;83386.69;5016499;28;20088;-70
2023/10/15 09:42:02;;;;;;;13.55;1.02;;;;;;;-146.27;84.32;83348.53;5023063;28;20418;-72
2023/10/15 09:44:29;;;;;;;8.75;1.05;;;;;;;-146.27;83.97;83280.22;5022927;28;20544;-71
2023/10/15 09:46:55;;;;;;;3.30;0.82;;;;;;;-146.27;82.71;83205.88;5026247;28;20029;-72
2023/10/15 09:49:20;;;;;;;7.85;0.90;;;;;;;-146.27;81.10;83143.59;5025407;28;20124;-72
2023/10/15 09:51:47;;;;;;;9.27;1.30;;;;;;;-146.27;80.67;83085.31;5021768;28;20513;-72
2023/10/15 09:54:14;;;;;;;4.40;0.90;;;;;;;-146.27;76.90;83087.31;5035829;28;20388;-73
2023/10/15 09:56:41;;;;;;;8.88;2.05;;;;;;;-146.27;78.27;83023.03;5032594;28;20095;-71
2023/10/15 09:59:10;;;;;;;12.95;1.70;;;;;;;-146.27;76.83;83002.94;5023355;28;20065;-71
2023/10/15 10:01:44;;;;;;;10.55;2.47;;;;;;;-146.27;74.11;83010.97;5021883;28;20030;-72
2023/10/15 10:04:42;;;;;;;11.35;1.35;;;;;;;-146.27;72.90;83013.00;5027558;28;20063;-71
2023/10/15 10:07:38;;;;;;;9.45;1.45;;;;;;;-146.27;70.89;83103.41;5011057;28;20073;-72
2023/10/15 10:10:22;;;;;;;9.80;1.30;;;;;;;-146.27;71.36;83075.28;5021340;28;20036;-70
2023/10/15 10:13:32;;;;;;;7.43;1.20;;;;;;;-146.27;71.86;83049.16;5019870;28;20061;-72
2023/10/15 10:15:58;;;;;;;6.00;1.30;;;;;;;-146.27;70.66;82976.81;5027144;28;20094;-71
2023/10/15 10:18:27;;;;;;;8.68;1.30;;;;;;;-146.27;69.65;82944.69;5021146;28;20034;-71
2023/10/15 10:20:55;;;;;;;4.72;1.05;;;;;;;-146.27;67.52;82910.53;5019682;28;20116;-71
2023/10/15 10:23:22;;;;;;;5.47;0.90;;;;;;;-146.27;68.82;82866.31;5028320;28;20084;-69
2023/10/15 10:25:50;;;;;;;6.85;1.50;;;;;;;-146.27;69.01;82818.13;5024197;28;20025;-68
2023/10/15 10:28:19;;;;;;;4.72;0.98;;;;;;;-146.27;64.52;82830.16;5026061;28;20038;-68
2023/10/15 10:30:55;;;;;;;9.93;1.95;;;;;;;-146.27;62.40;82874.38;5032694;28;20029;-70
2023/10/15 10:33:40;;;;;;;8.55;0.98;;;;;;;-146.27;63.29;82834.19;5021788;28;20033;-70
2023/10/15 10:36:13;;;;;;;8.82;2.22;;;;;;;-146.27;62.61;82922.59;5024984;28;20049;-69
2023/10/15 10:38:39;;;;;;;7.72;1.23;;;;;;;-146.27;62.60;82920.56;5026058;28;20018;-68
2023/10/15 10:41:13;;;;;;;12.80;1.20;;;;;;;-146.27;64.54;82946.69;5028539;28;20107;-67
2023/10/15 10:43:40;;;;;;;11.93;2.42;;;;;;;-146.27;64.94;82906.50;5022144;28;20052;-69
2023/10/15 10:46:09;;;;;;;4.70;1.35;;;;;;;-146.27;65.68;82900.47;5020799;28;20099;-69
2023/10/15 10:48:37;;;;;;;6.80;1.40;;;;;;;-146.27;65.55;82783.97;5026438;28;20040;-69
2023/10/15 10:51:18;;;;;;;4.82;1.20;;;;;;;-146.27;64.63;82721.69;5031395;28;20067;-69
2023/10/15 10:53:56;;;;;;;7.05;1.13;;;;;;;-146.27;58.95;82564.97;5025991;28;20109;-71
2023/10/15 10:56:40;;;;;;;5.97;0.60;;;;;;;-146.27;58.35;82548.91;5023229;28;20108;-69
2023/10/15 10:59:10;;;;;;;6.20;1.00;;;;;;;-146.27;53.07;82412.31;5023361;28;20083;-69
2023/10/15 11:01:39;;;;;;;3.28;0.45;;;;;;;-146.27;50.51;82273.72;5027425;28;20014;-69
2023/10/15 11:04:06;;;;;;;5.15;0.93;;;;;;;-146.27;48.45;82235.53;5021372;28;20025;-69
2023/10/15 11:06:36;;;;;;;5.90;0.90;;;;;;;-146.27;48.42;82147.16;5027662;28;20025;-69
2023/10/15 11:09:09;;;;;;;4.57;0.85;;;;;;;-146.27;47.15;82002.53;5034403;28;20069;-68
2023/10/15 11:11:34;;;;;;;1.73;0.70;;;;;;;-146.27;46.27;81998.50;5040271;28;20044;-70
2023/10/15 11:14:01;;;;;;;5.85;1.02;;;;;;;-146.27;45.81;82002.53;5024398;28;20063;-68
2023/10/15 11:16:26;;;;;;;3.72;0.90;;;;;;;-146.27;45.84;81906.13;5029030;28;20672;-68
2023/10/15 11:18:51;;;;;;;5.60;0.80;;;;;;;-146.27;44.08;81809.72;5025395;28;20162;-69
2023/10/15 11:21:17;;;;;;;6.38;1.00;;;;;;;-146.27;43.12;81755.47;5025288;28;20120;-68
2023/10/15 11:23:42;;;;;;;27.65;2.03;;;;;;;-146.27;42.98;81636.97;5038706;28;20040;-67
2023/10/15 11:26:08;;;;;;;3.95;1.00;;;;;;;-146.27;42.18;81556.66;5048278;28;20025;-67
2023/10/15 11:28:34;;;;;;;10.00;1.40;;;;;;;-146.27;41.44;81540.56;5038828;28;20036;-68
2023/10/15 11:31:02;;;;;;;6.45;0.93;;;;;;;-146.27;39.48;81556.66;5024931;28;20033;-68
2023/10/15 11:33:28;;;;;;;7.18;0.85;;;;;;;-146.27;38.92;81618.91;5024822;28;20040;-68
2023/10/15 11:35:54;;;;;;;6.13;1.02;;;;;;;-146.27;39.61;81564.69;5030453;28;20126;-68